sensor_id;sensor_type;location;lat;lon;timestamp;P1;durP1;ratioP1;P2;durP2;ratioP2
15474;SDS011;7839;50.462;9.678;2023-06-22T00:00:37;2.30;;;2.20;;
15474;SDS011;7839;50.462;9.678;2023-06-22T00:07:19;2.17;;;2.08;;
15474;SDS011;7839;50.462;9.678;2023-06-22T00:13:59;2.38;;;2.28;;
15474;SDS011;7839;50.462;9.678;2023-06-22T00:20:41;2.10;;;2.00;;
15474;SDS011;7839;50.462;9.678;2023-06-22T00:27:21;2.17;;;2.08;;
15474;SDS011;7839;50.462;9.678;2023-06-22T00:34:01;1.98;;;1.88;;
15474;SDS011;7839;50.462;9.678;2023-06-22T00:40:41;2.20;;;2.10;;
15474;SDS011;7839;50.462;9.678;2023-06-22T00:47:22;7.45;;;6.65;;
15474;SDS011;7839;50.462;9.678;2023-06-22T00:54:02;3.35;;;3.15;;
15474;SDS011;7839;50.462;9.678;2023-06-22T01:00:42;2.50;;;2.40;;
15474;SDS011;7839;50.462;9.678;2023-06-22T01:07:25;2.90;;;2.70;;
15474;SDS011;7839;50.462;9.678;2023-06-22T01:14:23;4.32;;;4.00;;
15474;SDS011;7839;50.462;9.678;2023-06-22T01:21:05;3.33;;;2.38;;
15474;SDS011;7839;50.462;9.678;2023-06-22T01:34:41;1.95;;;1.85;;
15474;SDS011;7839;50.462;9.678;2023-06-22T01:41:23;2.35;;;2.15;;
15474;SDS011;7839;50.462;9.678;2023-06-22T01:48:04;2.10;;;2.00;;
15474;SDS011;7839;50.462;9.678;2023-06-22T01:54:45;2.50;;;2.40;;
15474;SDS011;7839;50.462;9.678;2023-06-22T02:01:27;3.20;;;2.90;;
15474;SDS011;7839;50.462;9.678;2023-06-22T02:15:21;3.15;;;2.95;;
15474;SDS011;7839;50.462;9.678;2023-06-22T02:22:01;3.47;;;3.28;;
15474;SDS011;7839;50.462;9.678;2023-06-22T02:28:42;3.22;;;3.03;;
15474;SDS011;7839;50.462;9.678;2023-06-22T02:35:22;3.97;;;3.67;;
15474;SDS011;7839;50.462;9.678;2023-06-22T02:42:02;4.35;;;4.05;;
15474;SDS011;7839;50.462;9.678;2023-06-22T02:48:43;5.47;;;4.93;;
15474;SDS011;7839;50.462;9.678;2023-06-22T02:55:23;4.30;;;4.00;;
15474;SDS011;7839;50.462;9.678;2023-06-22T03:02:03;4.00;;;3.70;;
15474;SDS011;7839;50.462;9.678;2023-06-22T03:08:44;8.63;;;7.85;;
15474;SDS011;7839;50.462;9.678;2023-06-22T03:15:24;7.43;;;6.80;;
15474;SDS011;7839;50.462;9.678;2023-06-22T03:22:05;7.57;;;6.85;;
15474;SDS011;7839;50.462;9.678;2023-06-22T03:28:46;4.70;;;4.30;;
15474;SDS011;7839;50.462;9.678;2023-06-22T03:35:27;7.32;;;6.72;;
15474;SDS011;7839;50.462;9.678;2023-06-22T03:42:07;4.30;;;4.00;;
15474;SDS011;7839;50.462;9.678;2023-06-22T03:48:48;4.13;;;3.80;;
15474;SDS011;7839;50.462;9.678;2023-06-22T03:55:28;8.23;;;7.43;;
15474;SDS011;7839;50.462;9.678;2023-06-22T04:02:09;4.25;;;3.85;;
15474;SDS011;7839;50.462;9.678;2023-06-22T04:08:49;11.52;;;8.50;;
15474;SDS011;7839;50.462;9.678;2023-06-22T04:15:31;3.65;;;3.45;;
15474;SDS011;7839;50.462;9.678;2023-06-22T04:22:11;3.55;;;3.35;;
15474;SDS011;7839;50.462;9.678;2023-06-22T04:28:51;3.38;;;3.17;;
15474;SDS011;7839;50.462;9.678;2023-06-22T04:35:35;3.28;;;3.08;;
15474;SDS011;7839;50.462;9.678;2023-06-22T04:42:16;4.88;;;3.83;;
15474;SDS011;7839;50.462;9.678;2023-06-22T04:48:57;4.47;;;4.13;;
15474;SDS011;7839;50.462;9.678;2023-06-22T04:55:37;3.95;;;3.65;;
15474;SDS011;7839;50.462;9.678;2023-06-22T05:02:21;9.27;;;8.52;;
15474;SDS011;7839;50.462;9.678;2023-06-22T05:09:02;6.18;;;5.57;;
15474;SDS011;7839;50.462;9.678;2023-06-22T05:15:43;6.20;;;5.70;;
15474;SDS011;7839;50.462;9.678;2023-06-22T05:22:24;9.05;;;8.15;;
15474;SDS011;7839;50.462;9.678;2023-06-22T05:29:04;3.80;;;3.40;;
15474;SDS011;7839;50.462;9.678;2023-06-22T05:35:44;3.22;;;3.03;;
15474;SDS011;7839;50.462;9.678;2023-06-22T05:42:24;3.38;;;3.17;;
15474;SDS011;7839;50.462;9.678;2023-06-22T05:49:05;3.20;;;3.00;;
15474;SDS011;7839;50.462;9.678;2023-06-22T05:55:46;3.05;;;2.85;;
15474;SDS011;7839;50.462;9.678;2023-06-22T06:02:26;2.95;;;2.75;;
15474;SDS011;7839;50.462;9.678;2023-06-22T06:09:06;8.95;;;7.88;;
15474;SDS011;7839;50.462;9.678;2023-06-22T06:15:47;9.07;;;8.18;;
15474;SDS011;7839;50.462;9.678;2023-06-22T06:22:27;10.18;;;9.18;;
15474;SDS011;7839;50.462;9.678;2023-06-22T06:29:08;9.18;;;8.38;;
15474;SDS011;7839;50.462;9.678;2023-06-22T06:35:48;9.23;;;8.38;;
15474;SDS011;7839;50.462;9.678;2023-06-22T06:42:28;4.60;;;4.07;;
15474;SDS011;7839;50.462;9.678;2023-06-22T06:49:08;9.93;;;8.13;;
15474;SDS011;7839;50.462;9.678;2023-06-22T06:55:49;10.00;;;9.07;;
15474;SDS011;7839;50.462;9.678;2023-06-22T07:02:29;9.73;;;8.75;;
15474;SDS011;7839;50.462;9.678;2023-06-22T07:09:09;10.27;;;9.35;;
15474;SDS011;7839;50.462;9.678;2023-06-22T07:15:50;11.20;;;10.20;;
15474;SDS011;7839;50.462;9.678;2023-06-22T07:22:30;11.90;;;10.82;;
15474;SDS011;7839;50.462;9.678;2023-06-22T07:29:10;11.82;;;10.52;;
15474;SDS011;7839;50.462;9.678;2023-06-22T07:35:50;12.25;;;10.35;;
15474;SDS011;7839;50.462;9.678;2023-06-22T07:42:32;11.90;;;10.80;;
15474;SDS011;7839;50.462;9.678;2023-06-22T07:49:16;11.98;;;10.85;;
15474;SDS011;7839;50.462;9.678;2023-06-22T07:55:58;10.82;;;9.93;;
15474;SDS011;7839;50.462;9.678;2023-06-22T08:02:38;10.20;;;9.20;;
15474;SDS011;7839;50.462;9.678;2023-06-22T08:09:18;11.63;;;10.43;;
15474;SDS011;7839;50.462;9.678;2023-06-22T08:15:58;11.93;;;10.02;;
15474;SDS011;7839;50.462;9.678;2023-06-22T08:22:39;11.50;;;10.30;;
15474;SDS011;7839;50.462;9.678;2023-06-22T08:29:19;10.32;;;9.32;;
15474;SDS011;7839;50.462;9.678;2023-06-22T08:36:00;9.48;;;8.57;;
15474;SDS011;7839;50.462;9.678;2023-06-22T08:42:40;8.50;;;7.70;;
15474;SDS011;7839;50.462;9.678;2023-06-22T08:49:21;9.10;;;8.30;;
15474;SDS011;7839;50.462;9.678;2023-06-22T08:56:02;9.63;;;8.70;;
15474;SDS011;7839;50.462;9.678;2023-06-22T09:02:43;8.90;;;8.00;;
15474;SDS011;7839;50.462;9.678;2023-06-22T09:09:23;8.25;;;7.45;;
15474;SDS011;7839;50.462;9.678;2023-06-22T09:16:03;7.40;;;6.80;;
15474;SDS011;7839;50.462;9.678;2023-06-22T09:22:44;7.78;;;7.07;;
15474;SDS011;7839;50.462;9.678;2023-06-22T09:29:24;7.05;;;6.40;;
15474;SDS011;7839;50.462;9.678;2023-06-22T09:36:05;7.18;;;5.90;;
15474;SDS011;7839;50.462;9.678;2023-06-22T09:42:47;6.18;;;5.78;;
15474;SDS011;7839;50.462;9.678;2023-06-22T09:49:27;7.03;;;6.53;;
15474;SDS011;7839;50.462;9.678;2023-06-22T09:56:09;7.10;;;6.50;;
15474;SDS011;7839;50.462;9.678;2023-06-22T10:02:54;6.13;;;5.57;;
15474;SDS011;7839;50.462;9.678;2023-06-22T10:09:35;6.20;;;5.70;;
15474;SDS011;7839;50.462;9.678;2023-06-22T10:16:16;7.03;;;6.30;;
15474;SDS011;7839;50.462;9.678;2023-06-22T10:22:56;8.27;;;6.38;;
15474;SDS011;7839;50.462;9.678;2023-06-22T10:29:37;6.22;;;5.72;;
15474;SDS011;7839;50.462;9.678;2023-06-22T10:36:18;6.47;;;5.90;;
15474;SDS011;7839;50.462;9.678;2023-06-22T10:42:58;6.40;;;5.78;;
15474;SDS011;7839;50.462;9.678;2023-06-22T10:49:38;6.30;;;5.70;;
15474;SDS011;7839;50.462;9.678;2023-06-22T10:56:19;6.43;;;5.82;;
15474;SDS011;7839;50.462;9.678;2023-06-22T11:02:59;5.78;;;5.22;;
15474;SDS011;7839;50.462;9.678;2023-06-22T11:09:39;6.25;;;5.75;;
15474;SDS011;7839;50.462;9.678;2023-06-22T11:16:19;5.85;;;5.35;;
15474;SDS011;7839;50.462;9.678;2023-06-22T11:23:00;5.63;;;5.13;;
15474;SDS011;7839;50.462;9.678;2023-06-22T11:29:40;6.13;;;5.53;;
15474;SDS011;7839;50.462;9.678;2023-06-22T11:36:20;6.95;;;5.35;;
15474;SDS011;7839;50.462;9.678;2023-06-22T11:43:00;5.47;;;4.97;;
15474;SDS011;7839;50.462;9.678;2023-06-22T11:49:41;6.07;;;5.57;;
15474;SDS011;7839;50.462;9.678;2023-06-22T11:56:21;5.40;;;5.00;;
15474;SDS011;7839;50.462;9.678;2023-06-22T12:03:01;5.63;;;5.13;;
15474;SDS011;7839;50.462;9.678;2023-06-22T12:09:41;6.00;;;5.40;;
15474;SDS011;7839;50.462;9.678;2023-06-22T12:16:22;5.90;;;5.30;;
15474;SDS011;7839;50.462;9.678;2023-06-22T12:23:02;5.22;;;4.82;;
15474;SDS011;7839;50.462;9.678;2023-06-22T12:29:42;5.57;;;5.10;;
15474;SDS011;7839;50.462;9.678;2023-06-22T12:36:22;5.93;;;5.43;;
15474;SDS011;7839;50.462;9.678;2023-06-22T12:43:04;6.25;;;5.65;;
15474;SDS011;7839;50.462;9.678;2023-06-22T12:49:44;6.10;;;5.50;;
15474;SDS011;7839;50.462;9.678;2023-06-22T12:56:24;6.05;;;5.32;;
15474;SDS011;7839;50.462;9.678;2023-06-22T13:03:05;6.70;;;6.10;;
15474;SDS011;7839;50.462;9.678;2023-06-22T13:09:45;5.90;;;5.40;;
15474;SDS011;7839;50.462;9.678;2023-06-22T13:16:26;7.22;;;6.13;;
15474;SDS011;7839;50.462;9.678;2023-06-22T13:23:06;11.23;;;5.70;;
15474;SDS011;7839;50.462;9.678;2023-06-22T13:29:46;7.78;;;6.15;;
15474;SDS011;7839;50.462;9.678;2023-06-22T13:36:27;6.63;;;6.03;;
15474;SDS011;7839;50.462;9.678;2023-06-22T13:43:10;6.18;;;5.63;;
15474;SDS011;7839;50.462;9.678;2023-06-22T13:49:50;6.85;;;6.20;;
15474;SDS011;7839;50.462;9.678;2023-06-22T13:56:31;6.70;;;6.15;;
15474;SDS011;7839;50.462;9.678;2023-06-22T14:03:12;7.28;;;6.55;;
15474;SDS011;7839;50.462;9.678;2023-06-22T14:09:55;7.00;;;6.13;;
15474;SDS011;7839;50.462;9.678;2023-06-22T14:16:36;6.85;;;6.20;;
15474;SDS011;7839;50.462;9.678;2023-06-22T14:23:16;7.68;;;5.90;;
15474;SDS011;7839;50.462;9.678;2023-06-22T14:29:56;6.65;;;6.03;;
15474;SDS011;7839;50.462;9.678;2023-06-22T14:36:36;6.15;;;5.60;;
15474;SDS011;7839;50.462;9.678;2023-06-22T14:43:16;6.85;;;6.22;;
15474;SDS011;7839;50.462;9.678;2023-06-22T14:49:57;7.25;;;6.20;;
15474;SDS011;7839;50.462;9.678;2023-06-22T14:56:37;6.43;;;5.53;;
15474;SDS011;7839;50.462;9.678;2023-06-22T15:03:17;10.50;;;5.95;;
15474;SDS011;7839;50.462;9.678;2023-06-22T15:10:02;6.50;;;5.20;;
15474;SDS011;7839;50.462;9.678;2023-06-22T15:16:43;6.20;;;5.60;;
15474;SDS011;7839;50.462;9.678;2023-06-22T15:23:23;5.30;;;4.90;;
15474;SDS011;7839;50.462;9.678;2023-06-22T15:30:03;6.22;;;5.43;;
15474;SDS011;7839;50.462;9.678;2023-06-22T15:36:44;5.88;;;5.38;;
15474;SDS011;7839;50.462;9.678;2023-06-22T15:43:24;5.82;;;5.07;;
15474;SDS011;7839;50.462;9.678;2023-06-22T15:50:04;6.03;;;5.43;;
15474;SDS011;7839;50.462;9.678;2023-06-22T15:56:45;7.10;;;5.03;;
15474;SDS011;7839;50.462;9.678;2023-06-22T16:03:25;6.40;;;5.57;;
15474;SDS011;7839;50.462;9.678;2023-06-22T16:10:05;5.75;;;4.63;;
15474;SDS011;7839;50.462;9.678;2023-06-22T16:16:46;6.43;;;5.22;;
15474;SDS011;7839;50.462;9.678;2023-06-22T16:23:26;6.00;;;5.40;;
15474;SDS011;7839;50.462;9.678;2023-06-22T16:30:06;7.05;;;5.00;;
15474;SDS011;7839;50.462;9.678;2023-06-22T16:36:47;5.45;;;4.97;;
15474;SDS011;7839;50.462;9.678;2023-06-22T16:43:27;6.70;;;5.60;;
15474;SDS011;7839;50.462;9.678;2023-06-22T16:50:08;6.03;;;4.57;;
15474;SDS011;7839;50.462;9.678;2023-06-22T16:56:48;5.88;;;5.30;;
15474;SDS011;7839;50.462;9.678;2023-06-22T17:03:29;7.22;;;5.40;;
15474;SDS011;7839;50.462;9.678;2023-06-22T17:10:09;5.80;;;4.53;;
15474;SDS011;7839;50.462;9.678;2023-06-22T17:16:50;6.80;;;4.88;;
15474;SDS011;7839;50.462;9.678;2023-06-22T17:23:31;7.40;;;5.10;;
15474;SDS011;7839;50.462;9.678;2023-06-22T17:30:11;6.35;;;4.88;;
15474;SDS011;7839;50.462;9.678;2023-06-22T17:37:00;7.03;;;4.80;;
15474;SDS011;7839;50.462;9.678;2023-06-22T17:43:44;5.93;;;4.30;;
15474;SDS011;7839;50.462;9.678;2023-06-22T17:50:25;6.93;;;3.03;;
15474;SDS011;7839;50.462;9.678;2023-06-22T17:57:13;6.20;;;4.00;;
15474;SDS011;7839;50.462;9.678;2023-06-22T18:03:55;5.43;;;3.95;;
15474;SDS011;7839;50.462;9.678;2023-06-22T18:10:35;4.60;;;4.20;;
15474;SDS011;7839;50.462;9.678;2023-06-22T18:17:17;4.80;;;4.20;;
15474;SDS011;7839;50.462;9.678;2023-06-22T18:23:59;5.25;;;4.75;;
15474;SDS011;7839;50.462;9.678;2023-06-22T18:30:41;4.28;;;3.88;;
15474;SDS011;7839;50.462;9.678;2023-06-22T18:37:21;4.78;;;4.20;;
15474;SDS011;7839;50.462;9.678;2023-06-22T18:44:07;4.50;;;4.10;;
15474;SDS011;7839;50.462;9.678;2023-06-22T18:50:50;4.90;;;3.67;;
15474;SDS011;7839;50.462;9.678;2023-06-22T18:57:31;5.63;;;3.28;;
15474;SDS011;7839;50.462;9.678;2023-06-22T19:04:15;6.57;;;3.00;;
15474;SDS011;7839;50.462;9.678;2023-06-22T19:11:10;5.90;;;3.50;;
15474;SDS011;7839;50.462;9.678;2023-06-22T19:17:51;5.07;;;2.85;;
15474;SDS011;7839;50.462;9.678;2023-06-22T19:24:31;4.93;;;2.90;;
15474;SDS011;7839;50.462;9.678;2023-06-22T19:31:12;7.18;;;3.58;;
15474;SDS011;7839;50.462;9.678;2023-06-22T19:37:52;3.72;;;3.35;;
15474;SDS011;7839;50.462;9.678;2023-06-22T19:44:33;7.03;;;3.25;;
15474;SDS011;7839;50.462;9.678;2023-06-22T19:51:13;4.88;;;3.65;;
15474;SDS011;7839;50.462;9.678;2023-06-22T19:57:53;3.22;;;2.92;;
15474;SDS011;7839;50.462;9.678;2023-06-22T20:04:33;3.40;;;3.10;;
15474;SDS011;7839;50.462;9.678;2023-06-22T20:11:14;3.70;;;2.88;;
15474;SDS011;7839;50.462;9.678;2023-06-22T20:18:04;2.83;;;2.63;;
15474;SDS011;7839;50.462;9.678;2023-06-22T20:24:48;2.67;;;2.47;;
15474;SDS011;7839;50.462;9.678;2023-06-22T20:31:28;2.42;;;2.28;;
15474;SDS011;7839;50.462;9.678;2023-06-22T20:38:08;2.90;;;2.70;;
15474;SDS011;7839;50.462;9.678;2023-06-22T20:44:49;3.00;;;2.50;;
15474;SDS011;7839;50.462;9.678;2023-06-22T20:51:29;3.83;;;2.30;;
15474;SDS011;7839;50.462;9.678;2023-06-22T20:58:12;2.10;;;1.90;;
15474;SDS011;7839;50.462;9.678;2023-06-22T21:04:53;3.33;;;2.03;;
15474;SDS011;7839;50.462;9.678;2023-06-22T21:11:34;2.58;;;1.98;;
15474;SDS011;7839;50.462;9.678;2023-06-22T21:18:14;1.90;;;1.75;;
15474;SDS011;7839;50.462;9.678;2023-06-22T21:25:29;1.80;;;1.70;;
15474;SDS011;7839;50.462;9.678;2023-06-22T21:32:02;1.63;;;1.52;;
15474;SDS011;7839;50.462;9.678;2023-06-22T21:38:42;1.77;;;1.67;;
15474;SDS011;7839;50.462;9.678;2023-06-22T21:45:23;1.88;;;1.63;;
15474;SDS011;7839;50.462;9.678;2023-06-22T21:52:03;1.98;;;1.63;;
15474;SDS011;7839;50.462;9.678;2023-06-22T21:58:43;2.97;;;1.97;;
15474;SDS011;7839;50.462;9.678;2023-06-22T22:05:24;4.43;;;2.08;;
15474;SDS011;7839;50.462;9.678;2023-06-22T22:12:05;2.72;;;2.00;;
15474;SDS011;7839;50.462;9.678;2023-06-22T22:18:45;2.85;;;2.05;;
15474;SDS011;7839;50.462;9.678;2023-06-22T22:25:28;3.25;;;2.20;;
15474;SDS011;7839;50.462;9.678;2023-06-22T22:32:09;3.28;;;1.92;;
15474;SDS011;7839;50.462;9.678;2023-06-22T22:38:49;3.30;;;1.95;;
15474;SDS011;7839;50.462;9.678;2023-06-22T22:45:29;1.90;;;1.80;;
15474;SDS011;7839;50.462;9.678;2023-06-22T22:52:10;2.75;;;1.98;;
15474;SDS011;7839;50.462;9.678;2023-06-22T22:58:51;2.30;;;2.08;;
15474;SDS011;7839;50.462;9.678;2023-06-22T23:05:32;1.83;;;1.60;;
15474;SDS011;7839;50.462;9.678;2023-06-22T23:12:12;1.60;;;1.50;;
15474;SDS011;7839;50.462;9.678;2023-06-22T23:18:52;1.60;;;1.50;;
15474;SDS011;7839;50.462;9.678;2023-06-22T23:25:32;1.00;;;1.00;;
15474;SDS011;7839;50.462;9.678;2023-06-22T23:32:14;1.83;;;1.40;;
15474;SDS011;7839;50.462;9.678;2023-06-22T23:38:54;1.40;;;1.30;;
15474;SDS011;7839;50.462;9.678;2023-06-22T23:45:34;1.45;;;1.23;;
15474;SDS011;7839;50.462;9.678;2023-06-22T23:52:14;0.88;;;0.88;;
15474;SDS011;7839;50.462;9.678;2023-06-22T23:58:56;0.90;;;0.90;;
